sensor_id;sensor_type;location;lat;lon;timestamp;P1;durP1;ratioP1;P2;durP2;ratioP2
16308;SDS011;8263;48.880;9.276;2023-06-14T00:01:54;113.93;;;106.32;;
16308;SDS011;8263;48.880;9.276;2023-06-14T00:04:21;114.68;;;107.07;;
16308;SDS011;8263;48.880;9.276;2023-06-14T00:06:50;114.70;;;107.10;;
16308;SDS011;8263;48.880;9.276;2023-06-14T00:09:17;114.78;;;107.07;;
16308;SDS011;8263;48.880;9.276;2023-06-14T00:11:44;115.97;;;107.68;;
16308;SDS011;8263;48.880;9.276;2023-06-14T00:14:12;114.80;;;107.20;;
16308;SDS011;8263;48.880;9.276;2023-06-14T00:16:39;114.50;;;106.90;;
16308;SDS011;8263;48.880;9.276;2023-06-14T00:19:07;114.80;;;107.20;;
16308;SDS011;8263;48.880;9.276;2023-06-14T00:21:35;115.47;;;107.80;;
16308;SDS011;8263;48.880;9.276;2023-06-14T00:24:02;116.00;;;108.30;;
16308;SDS011;8263;48.880;9.276;2023-06-14T00:26:28;115.32;;;107.63;;
16308;SDS011;8263;48.880;9.276;2023-06-14T00:28:54;116.32;;;108.60;;
16308;SDS011;8263;48.880;9.276;2023-06-14T00:31:23;117.15;;;109.30;;
16308;SDS011;8263;48.880;9.276;2023-06-14T00:33:49;115.22;;;107.53;;
16308;SDS011;8263;48.880;9.276;2023-06-14T00:36:16;115.63;;;107.93;;
16308;SDS011;8263;48.880;9.276;2023-06-14T00:38:42;115.88;;;108.22;;
16308;SDS011;8263;48.880;9.276;2023-06-14T00:41:08;114.28;;;106.68;;
16308;SDS011;8263;48.880;9.276;2023-06-14T00:43:35;117.18;;;109.22;;
16308;SDS011;8263;48.880;9.276;2023-06-14T00:46:01;117.05;;;108.72;;
16308;SDS011;8263;48.880;9.276;2023-06-14T00:48:29;117.25;;;109.15;;
16308;SDS011;8263;48.880;9.276;2023-06-14T00:50:56;116.72;;;109.03;;
16308;SDS011;8263;48.880;9.276;2023-06-14T00:53:24;116.45;;;108.55;;
16308;SDS011;8263;48.880;9.276;2023-06-14T00:55:50;116.47;;;108.63;;
16308;SDS011;8263;48.880;9.276;2023-06-14T00:58:16;117.35;;;109.47;;
16308;SDS011;8263;48.880;9.276;2023-06-14T01:00:43;117.43;;;109.63;;
16308;SDS011;8263;48.880;9.276;2023-06-14T01:03:10;116.97;;;109.18;;
16308;SDS011;8263;48.880;9.276;2023-06-14T01:05:39;118.05;;;110.15;;
16308;SDS011;8263;48.880;9.276;2023-06-14T01:08:08;118.57;;;110.28;;
16308;SDS011;8263;48.880;9.276;2023-06-14T01:10:39;117.28;;;109.30;;
16308;SDS011;8263;48.880;9.276;2023-06-14T01:13:09;116.95;;;109.15;;
16308;SDS011;8263;48.880;9.276;2023-06-14T01:15:37;119.15;;;111.15;;
16308;SDS011;8263;48.880;9.276;2023-06-14T01:18:04;117.35;;;109.35;;
16308;SDS011;8263;48.880;9.276;2023-06-14T01:20:32;118.90;;;110.95;;
16308;SDS011;8263;48.880;9.276;2023-06-14T01:23:03;119.15;;;111.15;;
16308;SDS011;8263;48.880;9.276;2023-06-14T01:25:29;118.50;;;110.60;;
16308;SDS011;8263;48.880;9.276;2023-06-14T01:27:57;120.45;;;112.25;;
16308;SDS011;8263;48.880;9.276;2023-06-14T01:30:24;118.60;;;110.65;;
16308;SDS011;8263;48.880;9.276;2023-06-14T01:32:52;119.00;;;110.95;;
16308;SDS011;8263;48.880;9.276;2023-06-14T01:35:19;117.15;;;109.35;;
16308;SDS011;8263;48.880;9.276;2023-06-14T01:37:46;119.82;;;111.82;;
16308;SDS011;8263;48.880;9.276;2023-06-14T01:40:14;116.35;;;108.60;;
16308;SDS011;8263;48.880;9.276;2023-06-14T01:42:41;119.93;;;111.82;;
16308;SDS011;8263;48.880;9.276;2023-06-14T01:45:08;120.15;;;112.07;;
16308;SDS011;8263;48.880;9.276;2023-06-14T01:47:35;120.07;;;112.00;;
16308;SDS011;8263;48.880;9.276;2023-06-14T01:50:02;121.07;;;112.85;;
16308;SDS011;8263;48.880;9.276;2023-06-14T01:52:29;118.63;;;110.68;;
16308;SDS011;8263;48.880;9.276;2023-06-14T01:54:55;120.10;;;111.97;;
16308;SDS011;8263;48.880;9.276;2023-06-14T01:57:24;122.07;;;113.82;;
16308;SDS011;8263;48.880;9.276;2023-06-14T01:59:51;119.95;;;111.80;;
16308;SDS011;8263;48.880;9.276;2023-06-14T02:02:18;120.38;;;112.18;;
16308;SDS011;8263;48.880;9.276;2023-06-14T02:04:44;120.20;;;112.10;;
16308;SDS011;8263;48.880;9.276;2023-06-14T02:07:12;121.28;;;113.15;;
16308;SDS011;8263;48.880;9.276;2023-06-14T02:09:38;118.38;;;110.45;;
16308;SDS011;8263;48.880;9.276;2023-06-14T02:12:05;119.30;;;111.22;;
16308;SDS011;8263;48.880;9.276;2023-06-14T02:14:33;121.75;;;113.50;;
16308;SDS011;8263;48.880;9.276;2023-06-14T02:16:59;121.97;;;113.78;;
16308;SDS011;8263;48.880;9.276;2023-06-14T02:19:26;120.93;;;112.78;;
16308;SDS011;8263;48.880;9.276;2023-06-14T02:21:53;119.65;;;111.53;;
16308;SDS011;8263;48.880;9.276;2023-06-14T02:24:20;120.32;;;112.25;;
16308;SDS011;8263;48.880;9.276;2023-06-14T02:26:46;121.22;;;113.00;;
16308;SDS011;8263;48.880;9.276;2023-06-14T02:29:13;122.40;;;114.10;;
16308;SDS011;8263;48.880;9.276;2023-06-14T02:31:41;122.32;;;114.13;;
16308;SDS011;8263;48.880;9.276;2023-06-14T02:34:08;122.30;;;114.00;;
16308;SDS011;8263;48.880;9.276;2023-06-14T02:36:34;122.05;;;113.75;;
16308;SDS011;8263;48.880;9.276;2023-06-14T02:39:06;122.05;;;113.85;;
16308;SDS011;8263;48.880;9.276;2023-06-14T02:41:34;122.97;;;114.57;;
16308;SDS011;8263;48.880;9.276;2023-06-14T02:44:00;123.95;;;115.55;;
16308;SDS011;8263;48.880;9.276;2023-06-14T02:46:27;123.38;;;114.97;;
16308;SDS011;8263;48.880;9.276;2023-06-14T02:48:55;122.20;;;113.82;;
16308;SDS011;8263;48.880;9.276;2023-06-14T02:51:21;122.55;;;114.25;;
16308;SDS011;8263;48.880;9.276;2023-06-14T02:53:48;124.85;;;116.15;;
16308;SDS011;8263;48.880;9.276;2023-06-14T02:56:15;122.78;;;114.47;;
16308;SDS011;8263;48.880;9.276;2023-06-14T02:58:42;124.22;;;115.72;;
16308;SDS011;8263;48.880;9.276;2023-06-14T03:01:09;123.75;;;115.35;;
16308;SDS011;8263;48.880;9.276;2023-06-14T03:03:38;125.30;;;116.53;;
16308;SDS011;8263;48.880;9.276;2023-06-14T03:06:05;124.25;;;115.75;;
16308;SDS011;8263;48.880;9.276;2023-06-14T03:08:34;124.43;;;115.93;;
16308;SDS011;8263;48.880;9.276;2023-06-14T03:11:03;123.18;;;114.88;;
16308;SDS011;8263;48.880;9.276;2023-06-14T03:13:30;124.10;;;115.57;;
16308;SDS011;8263;48.880;9.276;2023-06-14T03:15:58;124.60;;;116.18;;
16308;SDS011;8263;48.880;9.276;2023-06-14T03:18:27;123.72;;;115.32;;
16308;SDS011;8263;48.880;9.276;2023-06-14T03:20:53;123.53;;;115.10;;
16308;SDS011;8263;48.880;9.276;2023-06-14T03:23:23;125.18;;;116.55;;
16308;SDS011;8263;48.880;9.276;2023-06-14T03:25:50;123.60;;;115.05;;
16308;SDS011;8263;48.880;9.276;2023-06-14T03:28:16;123.93;;;115.53;;
16308;SDS011;8263;48.880;9.276;2023-06-14T03:30:43;123.05;;;114.68;;
16308;SDS011;8263;48.880;9.276;2023-06-14T03:33:09;124.97;;;116.50;;
16308;SDS011;8263;48.880;9.276;2023-06-14T03:35:36;124.88;;;116.38;;
16308;SDS011;8263;48.880;9.276;2023-06-14T03:38:02;125.10;;;116.60;;
16308;SDS011;8263;48.880;9.276;2023-06-14T03:40:30;125.43;;;116.82;;
16308;SDS011;8263;48.880;9.276;2023-06-14T03:42:57;123.63;;;115.03;;
16308;SDS011;8263;48.880;9.276;2023-06-14T03:45:24;125.72;;;117.03;;
16308;SDS011;8263;48.880;9.276;2023-06-14T03:47:50;125.82;;;117.13;;
16308;SDS011;8263;48.880;9.276;2023-06-14T03:50:17;124.95;;;116.45;;
16308;SDS011;8263;48.880;9.276;2023-06-14T03:52:44;124.85;;;116.20;;
16308;SDS011;8263;48.880;9.276;2023-06-14T03:55:11;124.88;;;116.32;;
16308;SDS011;8263;48.880;9.276;2023-06-14T03:57:40;124.60;;;116.10;;
16308;SDS011;8263;48.880;9.276;2023-06-14T04:00:07;127.38;;;118.55;;
16308;SDS011;8263;48.880;9.276;2023-06-14T04:02:34;125.47;;;116.97;;
16308;SDS011;8263;48.880;9.276;2023-06-14T04:05:01;124.75;;;116.25;;
16308;SDS011;8263;48.880;9.276;2023-06-14T04:07:28;127.05;;;118.40;;
16308;SDS011;8263;48.880;9.276;2023-06-14T04:09:55;126.63;;;117.93;;
16308;SDS011;8263;48.880;9.276;2023-06-14T04:12:23;125.53;;;116.93;;
16308;SDS011;8263;48.880;9.276;2023-06-14T04:14:50;125.18;;;116.68;;
16308;SDS011;8263;48.880;9.276;2023-06-14T04:17:19;126.05;;;117.35;;
16308;SDS011;8263;48.880;9.276;2023-06-14T04:19:45;126.43;;;117.60;;
16308;SDS011;8263;48.880;9.276;2023-06-14T04:22:12;127.90;;;119.00;;
16308;SDS011;8263;48.880;9.276;2023-06-14T04:24:39;126.22;;;117.63;;
16308;SDS011;8263;48.880;9.276;2023-06-14T04:27:07;126.88;;;118.18;;
16308;SDS011;8263;48.880;9.276;2023-06-14T04:29:33;125.55;;;116.95;;
16308;SDS011;8263;48.880;9.276;2023-06-14T04:32:02;126.90;;;118.20;;
16308;SDS011;8263;48.880;9.276;2023-06-14T04:34:30;126.03;;;117.30;;
16308;SDS011;8263;48.880;9.276;2023-06-14T04:36:59;125.47;;;116.90;;
16308;SDS011;8263;48.880;9.276;2023-06-14T04:39:26;126.97;;;118.28;;
16308;SDS011;8263;48.880;9.276;2023-06-14T04:41:52;127.13;;;118.35;;
16308;SDS011;8263;48.880;9.276;2023-06-14T04:44:22;127.05;;;118.35;;
16308;SDS011;8263;48.880;9.276;2023-06-14T04:46:56;127.20;;;118.47;;
16308;SDS011;8263;48.880;9.276;2023-06-14T04:49:25;126.13;;;117.47;;
16308;SDS011;8263;48.880;9.276;2023-06-14T04:51:52;126.75;;;117.85;;
16308;SDS011;8263;48.880;9.276;2023-06-14T04:54:22;127.20;;;118.47;;
16308;SDS011;8263;48.880;9.276;2023-06-14T04:56:49;127.88;;;119.00;;
16308;SDS011;8263;48.880;9.276;2023-06-14T04:59:16;127.15;;;118.18;;
16308;SDS011;8263;48.880;9.276;2023-06-14T05:01:43;127.50;;;118.70;;
16308;SDS011;8263;48.880;9.276;2023-06-14T05:04:12;128.38;;;119.57;;
16308;SDS011;8263;48.880;9.276;2023-06-14T05:06:40;127.25;;;118.53;;
16308;SDS011;8263;48.880;9.276;2023-06-14T05:09:07;126.15;;;117.50;;
16308;SDS011;8263;48.880;9.276;2023-06-14T05:11:33;127.60;;;118.60;;
16308;SDS011;8263;48.880;9.276;2023-06-14T05:14:00;125.13;;;116.50;;
16308;SDS011;8263;48.880;9.276;2023-06-14T05:16:26;127.57;;;118.75;;
16308;SDS011;8263;48.880;9.276;2023-06-14T05:18:54;127.20;;;118.40;;
16308;SDS011;8263;48.880;9.276;2023-06-14T05:21:20;126.25;;;117.57;;
16308;SDS011;8263;48.880;9.276;2023-06-14T05:23:48;127.57;;;118.88;;
16308;SDS011;8263;48.880;9.276;2023-06-14T05:26:15;127.43;;;118.63;;
16308;SDS011;8263;48.880;9.276;2023-06-14T05:28:42;126.65;;;117.85;;
16308;SDS011;8263;48.880;9.276;2023-06-14T05:31:08;127.80;;;118.93;;
16308;SDS011;8263;48.880;9.276;2023-06-14T05:33:35;127.70;;;118.95;;
16308;SDS011;8263;48.880;9.276;2023-06-14T05:36:01;127.65;;;118.75;;
16308;SDS011;8263;48.880;9.276;2023-06-14T05:38:27;127.95;;;119.15;;
16308;SDS011;8263;48.880;9.276;2023-06-14T05:40:55;127.40;;;118.50;;
16308;SDS011;8263;48.880;9.276;2023-06-14T05:43:22;127.90;;;119.00;;
16308;SDS011;8263;48.880;9.276;2023-06-14T05:45:48;127.20;;;118.38;;
16308;SDS011;8263;48.880;9.276;2023-06-14T05:48:14;125.97;;;117.32;;
16308;SDS011;8263;48.880;9.276;2023-06-14T05:50:41;125.38;;;116.22;;
16308;SDS011;8263;48.880;9.276;2023-06-14T05:53:07;128.70;;;119.60;;
16308;SDS011;8263;48.880;9.276;2023-06-14T05:55:34;127.95;;;118.85;;
16308;SDS011;8263;48.880;9.276;2023-06-14T05:58:01;127.35;;;118.55;;
16308;SDS011;8263;48.880;9.276;2023-06-14T06:00:28;125.47;;;116.88;;
16308;SDS011;8263;48.880;9.276;2023-06-14T06:02:54;126.85;;;118.07;;
16308;SDS011;8263;48.880;9.276;2023-06-14T06:05:22;124.93;;;116.40;;
16308;SDS011;8263;48.880;9.276;2023-06-14T06:07:49;125.15;;;116.60;;
16308;SDS011;8263;48.880;9.276;2023-06-14T06:10:15;125.78;;;117.13;;
16308;SDS011;8263;48.880;9.276;2023-06-14T06:12:42;126.65;;;117.95;;
16308;SDS011;8263;48.880;9.276;2023-06-14T06:15:10;125.55;;;116.60;;
16308;SDS011;8263;48.880;9.276;2023-06-14T06:17:37;126.63;;;117.93;;
16308;SDS011;8263;48.880;9.276;2023-06-14T06:20:04;124.80;;;116.00;;
16308;SDS011;8263;48.880;9.276;2023-06-14T06:22:33;123.95;;;115.50;;
16308;SDS011;8263;48.880;9.276;2023-06-14T06:24:59;123.95;;;115.45;;
16308;SDS011;8263;48.880;9.276;2023-06-14T06:27:26;124.90;;;116.40;;
16308;SDS011;8263;48.880;9.276;2023-06-14T06:29:52;127.35;;;118.43;;
16308;SDS011;8263;48.880;9.276;2023-06-14T06:32:20;125.40;;;116.80;;
16308;SDS011;8263;48.880;9.276;2023-06-14T06:34:46;125.88;;;117.15;;
16308;SDS011;8263;48.880;9.276;2023-06-14T06:37:13;124.90;;;116.38;;
16308;SDS011;8263;48.880;9.276;2023-06-14T06:39:39;124.28;;;115.78;;
16308;SDS011;8263;48.880;9.276;2023-06-14T06:42:06;123.65;;;115.22;;
16308;SDS011;8263;48.880;9.276;2023-06-14T06:44:32;124.78;;;116.07;;
16308;SDS011;8263;48.880;9.276;2023-06-14T06:46:59;124.45;;;115.72;;
16308;SDS011;8263;48.880;9.276;2023-06-14T06:49:27;124.85;;;116.32;;
16308;SDS011;8263;48.880;9.276;2023-06-14T06:52:00;123.40;;;115.00;;
16308;SDS011;8263;48.880;9.276;2023-06-14T06:54:27;123.28;;;114.88;;
16308;SDS011;8263;48.880;9.276;2023-06-14T06:56:53;122.32;;;114.10;;
16308;SDS011;8263;48.880;9.276;2023-06-14T06:59:20;124.30;;;115.82;;
16308;SDS011;8263;48.880;9.276;2023-06-14T07:01:46;123.63;;;115.00;;
16308;SDS011;8263;48.880;9.276;2023-06-14T07:04:13;123.05;;;114.70;;
16308;SDS011;8263;48.880;9.276;2023-06-14T07:06:41;122.15;;;113.95;;
16308;SDS011;8263;48.880;9.276;2023-06-14T07:09:07;121.97;;;113.78;;
16308;SDS011;8263;48.880;9.276;2023-06-14T07:11:37;121.07;;;112.97;;
16308;SDS011;8263;48.880;9.276;2023-06-14T07:14:04;121.32;;;113.03;;
16308;SDS011;8263;48.880;9.276;2023-06-14T07:16:30;120.00;;;111.82;;
16308;SDS011;8263;48.880;9.276;2023-06-14T07:18:57;122.68;;;114.38;;
16308;SDS011;8263;48.880;9.276;2023-06-14T07:21:23;119.50;;;111.40;;
16308;SDS011;8263;48.880;9.276;2023-06-14T07:23:52;120.72;;;112.60;;
16308;SDS011;8263;48.880;9.276;2023-06-14T07:26:19;120.90;;;112.80;;
16308;SDS011;8263;48.880;9.276;2023-06-14T07:28:45;121.05;;;112.78;;
16308;SDS011;8263;48.880;9.276;2023-06-14T07:31:12;119.70;;;111.68;;
16308;SDS011;8263;48.880;9.276;2023-06-14T07:33:39;120.18;;;111.70;;
16308;SDS011;8263;48.880;9.276;2023-06-14T07:36:06;119.20;;;111.10;;
16308;SDS011;8263;48.880;9.276;2023-06-14T07:38:32;119.03;;;111.03;;
16308;SDS011;8263;48.880;9.276;2023-06-14T07:41:00;119.10;;;111.03;;
16308;SDS011;8263;48.880;9.276;2023-06-14T07:43:26;121.30;;;113.10;;
16308;SDS011;8263;48.880;9.276;2023-06-14T07:45:53;119.95;;;111.95;;
16308;SDS011;8263;48.880;9.276;2023-06-14T07:48:20;118.50;;;110.60;;
16308;SDS011;8263;48.880;9.276;2023-06-14T07:50:46;118.78;;;110.85;;
16308;SDS011;8263;48.880;9.276;2023-06-14T07:53:13;119.32;;;111.32;;
16308;SDS011;8263;48.880;9.276;2023-06-14T07:55:39;118.70;;;110.72;;
16308;SDS011;8263;48.880;9.276;2023-06-14T07:58:09;117.95;;;110.10;;
16308;SDS011;8263;48.880;9.276;2023-06-14T08:00:36;117.60;;;109.70;;
16308;SDS011;8263;48.880;9.276;2023-06-14T08:03:03;116.07;;;108.30;;
16308;SDS011;8263;48.880;9.276;2023-06-14T08:05:29;116.72;;;108.95;;
16308;SDS011;8263;48.880;9.276;2023-06-14T08:07:56;115.43;;;107.72;;
16308;SDS011;8263;48.880;9.276;2023-06-14T08:10:22;115.63;;;107.80;;
16308;SDS011;8263;48.880;9.276;2023-06-14T08:12:49;115.38;;;107.68;;
16308;SDS011;8263;48.880;9.276;2023-06-14T08:15:17;116.47;;;108.60;;
16308;SDS011;8263;48.880;9.276;2023-06-14T08:17:44;114.25;;;106.68;;
16308;SDS011;8263;48.880;9.276;2023-06-14T08:20:10;114.20;;;105.95;;
16308;SDS011;8263;48.880;9.276;2023-06-14T08:22:37;113.78;;;106.18;;
16308;SDS011;8263;48.880;9.276;2023-06-14T08:25:04;115.47;;;107.75;;
16308;SDS011;8263;48.880;9.276;2023-06-14T08:27:31;114.72;;;107.03;;
16308;SDS011;8263;48.880;9.276;2023-06-14T08:29:58;112.93;;;105.43;;
16308;SDS011;8263;48.880;9.276;2023-06-14T08:32:26;114.18;;;106.57;;
16308;SDS011;8263;48.880;9.276;2023-06-14T08:34:52;114.30;;;106.70;;
16308;SDS011;8263;48.880;9.276;2023-06-14T08:37:19;114.07;;;106.28;;
16308;SDS011;8263;48.880;9.276;2023-06-14T08:39:46;113.65;;;105.38;;
16308;SDS011;8263;48.880;9.276;2023-06-14T08:42:12;113.72;;;106.22;;
16308;SDS011;8263;48.880;9.276;2023-06-14T08:44:40;112.85;;;105.25;;
16308;SDS011;8263;48.880;9.276;2023-06-14T08:47:07;111.30;;;103.95;;
16308;SDS011;8263;48.880;9.276;2023-06-14T08:49:35;108.60;;;101.43;;
16308;SDS011;8263;48.880;9.276;2023-06-14T08:52:02;110.55;;;103.25;;
16308;SDS011;8263;48.880;9.276;2023-06-14T08:54:29;108.25;;;101.05;;
16308;SDS011;8263;48.880;9.276;2023-06-14T08:56:56;110.85;;;103.55;;
16308;SDS011;8263;48.880;9.276;2023-06-14T08:59:23;110.05;;;102.18;;
16308;SDS011;8263;48.880;9.276;2023-06-14T09:01:50;108.68;;;101.47;;
16308;SDS011;8263;48.880;9.276;2023-06-14T09:04:17;110.03;;;102.82;;
16308;SDS011;8263;48.880;9.276;2023-06-14T09:06:46;107.25;;;100.25;;
16308;SDS011;8263;48.880;9.276;2023-06-14T09:09:17;108.65;;;101.55;;
16308;SDS011;8263;48.880;9.276;2023-06-14T09:11:44;108.57;;;101.38;;
16308;SDS011;8263;48.880;9.276;2023-06-14T09:14:10;107.05;;;100.05;;
16308;SDS011;8263;48.880;9.276;2023-06-14T09:16:36;108.38;;;101.28;;
16308;SDS011;8263;48.880;9.276;2023-06-14T09:19:03;106.22;;;99.30;;
16308;SDS011;8263;48.880;9.276;2023-06-14T09:21:29;106.55;;;99.63;;
16308;SDS011;8263;48.880;9.276;2023-06-14T09:24:01;104.88;;;98.05;;
16308;SDS011;8263;48.880;9.276;2023-06-14T09:26:27;104.55;;;97.65;;
16308;SDS011;8263;48.880;9.276;2023-06-14T09:28:54;103.25;;;96.45;;
16308;SDS011;8263;48.880;9.276;2023-06-14T09:31:21;104.90;;;98.05;;
16308;SDS011;8263;48.880;9.276;2023-06-14T09:33:48;102.10;;;95.47;;
16308;SDS011;8263;48.880;9.276;2023-06-14T09:36:15;104.10;;;97.30;;
16308;SDS011;8263;48.880;9.276;2023-06-14T09:38:42;101.95;;;95.30;;
16308;SDS011;8263;48.880;9.276;2023-06-14T09:41:10;102.18;;;95.57;;
16308;SDS011;8263;48.880;9.276;2023-06-14T09:43:36;101.55;;;94.88;;
16308;SDS011;8263;48.880;9.276;2023-06-14T09:46:03;99.53;;;93.05;;
16308;SDS011;8263;48.880;9.276;2023-06-14T09:48:30;100.82;;;94.32;;
16308;SDS011;8263;48.880;9.276;2023-06-14T09:50:57;101.95;;;95.35;;
16308;SDS011;8263;48.880;9.276;2023-06-14T09:53:24;101.25;;;94.72;;
16308;SDS011;8263;48.880;9.276;2023-06-14T09:55:51;102.03;;;95.43;;
16308;SDS011;8263;48.880;9.276;2023-06-14T09:58:19;102.45;;;95.85;;
16308;SDS011;8263;48.880;9.276;2023-06-14T10:00:46;100.50;;;94.00;;
16308;SDS011;8263;48.880;9.276;2023-06-14T10:03:16;100.30;;;93.82;;
16308;SDS011;8263;48.880;9.276;2023-06-14T10:05:45;97.57;;;91.25;;
16308;SDS011;8263;48.880;9.276;2023-06-14T10:08:14;100.68;;;94.10;;
16308;SDS011;8263;48.880;9.276;2023-06-14T10:10:42;96.93;;;90.63;;
16308;SDS011;8263;48.880;9.276;2023-06-14T10:13:09;98.53;;;92.13;;
16308;SDS011;8263;48.880;9.276;2023-06-14T10:15:41;99.35;;;92.95;;
16308;SDS011;8263;48.880;9.276;2023-06-14T10:18:11;98.43;;;92.05;;
16308;SDS011;8263;48.880;9.276;2023-06-14T10:20:48;94.97;;;88.88;;
16308;SDS011;8263;48.880;9.276;2023-06-14T10:23:16;95.22;;;89.15;;
16308;SDS011;8263;48.880;9.276;2023-06-14T10:25:43;96.22;;;90.05;;
16308;SDS011;8263;48.880;9.276;2023-06-14T10:28:16;98.35;;;92.03;;
16308;SDS011;8263;48.880;9.276;2023-06-14T10:31:03;95.45;;;89.25;;
16308;SDS011;8263;48.880;9.276;2023-06-14T10:33:30;94.07;;;88.05;;
16308;SDS011;8263;48.880;9.276;2023-06-14T10:36:06;96.95;;;90.72;;
16308;SDS011;8263;48.880;9.276;2023-06-14T10:38:33;96.97;;;90.78;;
16308;SDS011;8263;48.880;9.276;2023-06-14T10:41:01;97.53;;;91.22;;
16308;SDS011;8263;48.880;9.276;2023-06-14T10:43:28;96.63;;;90.32;;
16308;SDS011;8263;48.880;9.276;2023-06-14T10:46:15;95.40;;;89.20;;
16308;SDS011;8263;48.880;9.276;2023-06-14T10:48:42;96.70;;;90.43;;
16308;SDS011;8263;48.880;9.276;2023-06-14T10:51:14;96.25;;;90.05;;
16308;SDS011;8263;48.880;9.276;2023-06-14T10:53:41;94.30;;;88.25;;
16308;SDS011;8263;48.880;9.276;2023-06-14T10:56:08;95.30;;;89.20;;
16308;SDS011;8263;48.880;9.276;2023-06-14T10:58:36;96.32;;;90.03;;
16308;SDS011;8263;48.880;9.276;2023-06-14T11:01:02;95.57;;;89.45;;
16308;SDS011;8263;48.880;9.276;2023-06-14T11:03:45;93.47;;;87.45;;
16308;SDS011;8263;48.880;9.276;2023-06-14T11:06:16;95.18;;;88.85;;
16308;SDS011;8263;48.880;9.276;2023-06-14T11:08:56;96.07;;;89.90;;
16308;SDS011;8263;48.880;9.276;2023-06-14T11:11:31;95.22;;;89.07;;
16308;SDS011;8263;48.880;9.276;2023-06-14T11:13:58;94.88;;;88.78;;
16308;SDS011;8263;48.880;9.276;2023-06-14T11:16:26;94.35;;;88.30;;
16308;SDS011;8263;48.880;9.276;2023-06-14T11:18:53;91.35;;;85.55;;
16308;SDS011;8263;48.880;9.276;2023-06-14T11:21:20;93.55;;;87.50;;
16308;SDS011;8263;48.880;9.276;2023-06-14T11:23:50;91.07;;;85.20;;
16308;SDS011;8263;48.880;9.276;2023-06-14T11:26:23;93.55;;;87.55;;
16308;SDS011;8263;48.880;9.276;2023-06-14T11:28:54;91.82;;;85.93;;
16308;SDS011;8263;48.880;9.276;2023-06-14T11:31:20;93.28;;;87.28;;
16308;SDS011;8263;48.880;9.276;2023-06-14T11:33:49;91.15;;;85.35;;
16308;SDS011;8263;48.880;9.276;2023-06-14T11:36:16;91.25;;;85.43;;
16308;SDS011;8263;48.880;9.276;2023-06-14T11:38:43;92.03;;;86.15;;
16308;SDS011;8263;48.880;9.276;2023-06-14T11:41:10;88.35;;;82.65;;
16308;SDS011;8263;48.880;9.276;2023-06-14T11:43:36;88.65;;;82.95;;
16308;SDS011;8263;48.880;9.276;2023-06-14T11:46:02;88.07;;;82.40;;
16308;SDS011;8263;48.880;9.276;2023-06-14T11:48:38;89.63;;;83.93;;
16308;SDS011;8263;48.880;9.276;2023-06-14T11:51:04;89.97;;;84.18;;
16308;SDS011;8263;48.880;9.276;2023-06-14T11:53:32;89.97;;;84.18;;
16308;SDS011;8263;48.880;9.276;2023-06-14T11:55:59;89.60;;;83.60;;
16308;SDS011;8263;48.880;9.276;2023-06-14T11:58:26;86.85;;;81.25;;
16308;SDS011;8263;48.880;9.276;2023-06-14T12:00:52;87.15;;;81.55;;
16308;SDS011;8263;48.880;9.276;2023-06-14T12:03:22;88.95;;;83.25;;
16308;SDS011;8263;48.880;9.276;2023-06-14T12:05:49;90.03;;;84.20;;
16308;SDS011;8263;48.880;9.276;2023-06-14T12:08:16;88.90;;;82.70;;
16308;SDS011;8263;48.880;9.276;2023-06-14T12:10:45;86.28;;;80.78;;
16308;SDS011;8263;48.880;9.276;2023-06-14T12:13:12;86.07;;;80.57;;
16308;SDS011;8263;48.880;9.276;2023-06-14T12:15:39;87.13;;;81.43;;
16308;SDS011;8263;48.880;9.276;2023-06-14T12:18:05;84.72;;;78.80;;
16308;SDS011;8263;48.880;9.276;2023-06-14T12:20:33;84.85;;;79.32;;
16308;SDS011;8263;48.880;9.276;2023-06-14T12:23:02;83.45;;;78.15;;
16308;SDS011;8263;48.880;9.276;2023-06-14T12:25:30;85.95;;;80.43;;
16308;SDS011;8263;48.880;9.276;2023-06-14T12:27:59;85.57;;;80.07;;
16308;SDS011;8263;48.880;9.276;2023-06-14T12:30:26;84.15;;;78.70;;
16308;SDS011;8263;48.880;9.276;2023-06-14T12:32:52;84.00;;;78.40;;
16308;SDS011;8263;48.880;9.276;2023-06-14T12:35:19;82.05;;;76.75;;
16308;SDS011;8263;48.880;9.276;2023-06-14T12:37:46;81.57;;;76.32;;
16308;SDS011;8263;48.880;9.276;2023-06-14T12:40:12;83.70;;;78.35;;
16308;SDS011;8263;48.880;9.276;2023-06-14T12:42:39;82.15;;;76.95;;
16308;SDS011;8263;48.880;9.276;2023-06-14T12:45:08;81.80;;;76.50;;
16308;SDS011;8263;48.880;9.276;2023-06-14T12:47:34;80.65;;;75.55;;
16308;SDS011;8263;48.880;9.276;2023-06-14T12:50:01;82.32;;;77.03;;
16308;SDS011;8263;48.880;9.276;2023-06-14T12:52:28;83.22;;;77.88;;
16308;SDS011;8263;48.880;9.276;2023-06-14T12:54:55;85.28;;;79.78;;
16308;SDS011;8263;48.880;9.276;2023-06-14T12:57:22;81.57;;;76.28;;
16308;SDS011;8263;48.880;9.276;2023-06-14T12:59:49;82.72;;;77.32;;
16308;SDS011;8263;48.880;9.276;2023-06-14T13:02:17;82.35;;;77.05;;
16308;SDS011;8263;48.880;9.276;2023-06-14T13:04:44;83.80;;;78.40;;
16308;SDS011;8263;48.880;9.276;2023-06-14T13:07:10;82.68;;;77.43;;
16308;SDS011;8263;48.880;9.276;2023-06-14T13:09:37;79.40;;;74.35;;
16308;SDS011;8263;48.880;9.276;2023-06-14T13:12:04;81.00;;;75.80;;
16308;SDS011;8263;48.880;9.276;2023-06-14T13:14:30;81.75;;;76.50;;
16308;SDS011;8263;48.880;9.276;2023-06-14T13:16:57;79.90;;;74.82;;
16308;SDS011;8263;48.880;9.276;2023-06-14T13:19:25;79.97;;;74.80;;
16308;SDS011;8263;48.880;9.276;2023-06-14T13:21:52;78.72;;;73.72;;
16308;SDS011;8263;48.880;9.276;2023-06-14T13:24:18;79.20;;;74.10;;
16308;SDS011;8263;48.880;9.276;2023-06-14T13:26:44;81.38;;;76.18;;
16308;SDS011;8263;48.880;9.276;2023-06-14T13:29:11;80.55;;;75.45;;
16308;SDS011;8263;48.880;9.276;2023-06-14T13:31:37;79.97;;;74.88;;
16308;SDS011;8263;48.880;9.276;2023-06-14T13:34:04;80.10;;;74.93;;
16308;SDS011;8263;48.880;9.276;2023-06-14T13:36:32;79.88;;;74.78;;
16308;SDS011;8263;48.880;9.276;2023-06-14T13:38:58;79.70;;;74.55;;
16308;SDS011;8263;48.880;9.276;2023-06-14T13:41:25;77.93;;;72.95;;
16308;SDS011;8263;48.880;9.276;2023-06-14T13:43:56;78.57;;;73.07;;
16308;SDS011;8263;48.880;9.276;2023-06-14T13:46:23;77.07;;;72.07;;
16308;SDS011;8263;48.880;9.276;2023-06-14T13:48:49;79.22;;;74.13;;
16308;SDS011;8263;48.880;9.276;2023-06-14T13:51:15;76.82;;;71.85;;
16308;SDS011;8263;48.880;9.276;2023-06-14T13:53:46;80.35;;;75.25;;
16308;SDS011;8263;48.880;9.276;2023-06-14T13:56:12;78.18;;;73.13;;
16308;SDS011;8263;48.880;9.276;2023-06-14T13:58:39;78.55;;;73.50;;
16308;SDS011;8263;48.880;9.276;2023-06-14T14:01:06;79.40;;;74.30;;
16308;SDS011;8263;48.880;9.276;2023-06-14T14:03:32;77.40;;;72.35;;
16308;SDS011;8263;48.880;9.276;2023-06-14T14:05:59;78.20;;;73.25;;
16308;SDS011;8263;48.880;9.276;2023-06-14T14:08:26;78.72;;;73.72;;
16308;SDS011;8263;48.880;9.276;2023-06-14T14:10:54;81.13;;;76.03;;
16308;SDS011;8263;48.880;9.276;2023-06-14T14:13:21;80.85;;;75.63;;
16308;SDS011;8263;48.880;9.276;2023-06-14T14:15:47;78.53;;;73.50;;
16308;SDS011;8263;48.880;9.276;2023-06-14T14:18:14;79.15;;;74.15;;